sensor_id;sensor_type;location;lat;lon;timestamp;P1;durP1;ratioP1;P2;durP2;ratioP2
76357;SDS011;65185;21.060;105.826;2023-03-12T00:03:43;81.00;;;51.38;;
76357;SDS011;65185;21.060;105.826;2023-03-12T00:06:10;89.68;;;52.97;;
76357;SDS011;65185;21.060;105.826;2023-03-12T00:08:37;79.55;;;51.97;;
76357;SDS011;65185;21.060;105.826;2023-03-12T00:11:05;90.18;;;53.58;;
76357;SDS011;65185;21.060;105.826;2023-03-12T00:13:33;78.85;;;53.38;;
76357;SDS011;65185;21.060;105.826;2023-03-12T00:16:07;88.60;;;61.00;;
76357;SDS011;65185;21.060;105.826;2023-03-12T00:18:39;92.63;;;61.17;;
76357;SDS011;65185;21.060;105.826;2023-03-12T00:21:07;91.47;;;65.68;;
76357;SDS011;65185;21.060;105.826;2023-03-12T00:26:51;92.63;;;60.83;;
76357;SDS011;65185;21.060;105.826;2023-03-12T00:29:18;94.13;;;61.60;;
76357;SDS011;65185;21.060;105.826;2023-03-12T00:31:44;84.60;;;57.17;;
76357;SDS011;65185;21.060;105.826;2023-03-12T00:34:12;81.57;;;55.83;;
76357;SDS011;65185;21.060;105.826;2023-03-12T00:36:38;86.55;;;55.20;;
76357;SDS011;65185;21.060;105.826;2023-03-12T00:39:05;72.85;;;47.97;;
76357;SDS011;65185;21.060;105.826;2023-03-12T00:41:32;68.70;;;44.53;;
76357;SDS011;65185;21.060;105.826;2023-03-12T00:43:59;72.97;;;47.50;;
76357;SDS011;65185;21.060;105.826;2023-03-12T00:46:25;71.10;;;44.20;;
76357;SDS011;65185;21.060;105.826;2023-03-12T00:48:52;74.03;;;45.92;;
76357;SDS011;65185;21.060;105.826;2023-03-12T00:51:19;70.07;;;45.25;;
76357;SDS011;65185;21.060;105.826;2023-03-12T00:53:46;70.95;;;44.58;;
76357;SDS011;65185;21.060;105.826;2023-03-12T00:56:13;75.97;;;47.92;;
76357;SDS011;65185;21.060;105.826;2023-03-12T00:58:40;75.20;;;46.72;;
76357;SDS011;65185;21.060;105.826;2023-03-12T01:01:07;78.55;;;49.65;;
76357;SDS011;65185;21.060;105.826;2023-03-12T01:03:34;73.68;;;45.38;;
76357;SDS011;65185;21.060;105.826;2023-03-12T01:06:01;79.18;;;51.40;;
76357;SDS011;65185;21.060;105.826;2023-03-12T01:08:28;81.22;;;51.05;;
76357;SDS011;65185;21.060;105.826;2023-03-12T01:10:56;80.95;;;51.17;;
76357;SDS011;65185;21.060;105.826;2023-03-12T01:13:22;81.40;;;51.17;;
76357;SDS011;65185;21.060;105.826;2023-03-12T01:15:49;80.78;;;53.80;;
76357;SDS011;65185;21.060;105.826;2023-03-12T01:18:16;83.22;;;52.75;;
76357;SDS011;65185;21.060;105.826;2023-03-12T01:20:43;95.85;;;56.22;;
76357;SDS011;65185;21.060;105.826;2023-03-12T01:23:10;86.07;;;52.35;;
76357;SDS011;65185;21.060;105.826;2023-03-12T01:25:36;88.90;;;53.10;;
76357;SDS011;65185;21.060;105.826;2023-03-12T01:28:03;94.47;;;54.83;;
76357;SDS011;65185;21.060;105.826;2023-03-12T01:30:30;82.57;;;50.78;;
76357;SDS011;65185;21.060;105.826;2023-03-12T01:32:57;89.07;;;54.75;;
76357;SDS011;65185;21.060;105.826;2023-03-12T01:35:24;92.13;;;54.65;;
76357;SDS011;65185;21.060;105.826;2023-03-12T01:37:51;91.25;;;54.17;;
76357;SDS011;65185;21.060;105.826;2023-03-12T01:40:20;84.82;;;52.75;;
76357;SDS011;65185;21.060;105.826;2023-03-12T01:42:54;93.20;;;54.22;;
76357;SDS011;65185;21.060;105.826;2023-03-12T01:48:26;94.00;;;57.50;;
76357;SDS011;65185;21.060;105.826;2023-03-12T01:50:57;85.30;;;53.88;;
76357;SDS011;65185;21.060;105.826;2023-03-12T01:55:53;81.43;;;49.97;;
76357;SDS011;65185;21.060;105.826;2023-03-12T01:58:20;84.90;;;49.55;;
76357;SDS011;65185;21.060;105.826;2023-03-12T02:00:47;84.10;;;50.97;;
76357;SDS011;65185;21.060;105.826;2023-03-12T02:03:13;86.55;;;52.20;;
76357;SDS011;65185;21.060;105.826;2023-03-12T02:05:44;88.15;;;52.17;;
76357;SDS011;65185;21.060;105.826;2023-03-12T02:08:15;89.20;;;54.47;;
76357;SDS011;65185;21.060;105.826;2023-03-12T02:10:43;92.13;;;54.65;;
76357;SDS011;65185;21.060;105.826;2023-03-12T02:13:11;95.15;;;55.42;;
76357;SDS011;65185;21.060;105.826;2023-03-12T02:15:38;91.97;;;53.65;;
76357;SDS011;65185;21.060;105.826;2023-03-12T02:18:12;86.88;;;53.20;;
76357;SDS011;65185;21.060;105.826;2023-03-12T02:23:51;100.00;;;58.55;;
76357;SDS011;65185;21.060;105.826;2023-03-12T02:26:37;93.22;;;54.92;;
76357;SDS011;65185;21.060;105.826;2023-03-12T02:29:05;92.70;;;59.05;;
76357;SDS011;65185;21.060;105.826;2023-03-12T02:31:39;90.18;;;52.90;;
76357;SDS011;65185;21.060;105.826;2023-03-12T02:34:09;88.05;;;53.92;;
76357;SDS011;65185;21.060;105.826;2023-03-12T02:36:36;84.85;;;49.88;;
76357;SDS011;65185;21.060;105.826;2023-03-12T02:39:03;70.97;;;44.13;;
76357;SDS011;65185;21.060;105.826;2023-03-12T02:41:32;75.43;;;46.97;;
76357;SDS011;65185;21.060;105.826;2023-03-12T02:44:07;79.10;;;47.45;;
76357;SDS011;65185;21.060;105.826;2023-03-12T02:46:40;78.90;;;46.88;;
76357;SDS011;65185;21.060;105.826;2023-03-12T02:49:12;81.65;;;49.15;;
76357;SDS011;65185;21.060;105.826;2023-03-12T02:51:41;94.47;;;56.35;;
76357;SDS011;65185;21.060;105.826;2023-03-12T02:54:15;78.10;;;48.20;;
76357;SDS011;65185;21.060;105.826;2023-03-12T02:56:44;90.93;;;55.10;;
76357;SDS011;65185;21.060;105.826;2023-03-12T02:59:11;91.90;;;57.55;;
76357;SDS011;65185;21.060;105.826;2023-03-12T03:01:39;97.50;;;59.38;;
76357;SDS011;65185;21.060;105.826;2023-03-12T03:04:16;103.18;;;59.75;;
76357;SDS011;65185;21.060;105.826;2023-03-12T03:06:46;94.75;;;56.08;;
76357;SDS011;65185;21.060;105.826;2023-03-12T03:09:13;96.50;;;59.53;;
76357;SDS011;65185;21.060;105.826;2023-03-12T03:11:47;95.80;;;58.47;;
76357;SDS011;65185;21.060;105.826;2023-03-12T03:14:14;100.55;;;62.58;;
76357;SDS011;65185;21.060;105.826;2023-03-12T03:16:41;100.30;;;62.83;;
76357;SDS011;65185;21.060;105.826;2023-03-12T03:19:08;92.10;;;55.75;;
76357;SDS011;65185;21.060;105.826;2023-03-12T03:21:36;91.63;;;55.72;;
76357;SDS011;65185;21.060;105.826;2023-03-12T03:24:02;93.90;;;56.55;;
76357;SDS011;65185;21.060;105.826;2023-03-12T03:26:29;89.28;;;57.97;;
76357;SDS011;65185;21.060;105.826;2023-03-12T03:28:56;85.72;;;52.17;;
76357;SDS011;65185;21.060;105.826;2023-03-12T03:31:23;88.90;;;55.15;;
76357;SDS011;65185;21.060;105.826;2023-03-12T03:33:50;101.20;;;60.38;;
76357;SDS011;65185;21.060;105.826;2023-03-12T03:36:16;93.95;;;56.85;;
76357;SDS011;65185;21.060;105.826;2023-03-12T03:38:43;96.65;;;59.28;;
76357;SDS011;65185;21.060;105.826;2023-03-12T03:41:14;93.80;;;58.72;;
76357;SDS011;65185;21.060;105.826;2023-03-12T03:43:42;99.88;;;63.00;;
76357;SDS011;65185;21.060;105.826;2023-03-12T03:46:10;93.10;;;58.78;;
76357;SDS011;65185;21.060;105.826;2023-03-12T03:48:37;107.95;;;63.97;;
76357;SDS011;65185;21.060;105.826;2023-03-12T03:51:05;97.07;;;61.22;;
76357;SDS011;65185;21.060;105.826;2023-03-12T03:53:33;89.75;;;56.70;;
76357;SDS011;65185;21.060;105.826;2023-03-12T03:56:07;81.07;;;51.28;;
76357;SDS011;65185;21.060;105.826;2023-03-12T03:58:35;81.72;;;51.25;;
76357;SDS011;65185;21.060;105.826;2023-03-12T04:01:01;74.85;;;48.88;;
76357;SDS011;65185;21.060;105.826;2023-03-12T04:03:28;78.13;;;48.40;;
76357;SDS011;65185;21.060;105.826;2023-03-12T04:05:56;77.85;;;49.08;;
76357;SDS011;65185;21.060;105.826;2023-03-12T04:08:25;74.38;;;46.13;;
76357;SDS011;65185;21.060;105.826;2023-03-12T04:10:53;74.63;;;47.33;;
76357;SDS011;65185;21.060;105.826;2023-03-12T04:13:20;72.60;;;43.92;;
76357;SDS011;65185;21.060;105.826;2023-03-12T04:15:49;63.45;;;41.28;;
76357;SDS011;65185;21.060;105.826;2023-03-12T04:20:44;66.68;;;44.58;;
76357;SDS011;65185;21.060;105.826;2023-03-12T04:23:11;70.80;;;43.65;;
76357;SDS011;65185;21.060;105.826;2023-03-12T04:25:37;71.72;;;44.42;;
76357;SDS011;65185;21.060;105.826;2023-03-12T04:28:04;74.88;;;45.13;;
76357;SDS011;65185;21.060;105.826;2023-03-12T04:30:32;71.18;;;44.25;;
76357;SDS011;65185;21.060;105.826;2023-03-12T04:33:03;73.15;;;46.30;;
76357;SDS011;65185;21.060;105.826;2023-03-12T04:35:31;67.35;;;41.55;;
76357;SDS011;65185;21.060;105.826;2023-03-12T04:38:01;74.82;;;46.55;;
76357;SDS011;65185;21.060;105.826;2023-03-12T04:40:28;67.78;;;42.78;;
76357;SDS011;65185;21.060;105.826;2023-03-12T04:42:55;59.00;;;39.10;;
76357;SDS011;65185;21.060;105.826;2023-03-12T04:45:22;81.15;;;48.30;;
76357;SDS011;65185;21.060;105.826;2023-03-12T04:47:49;83.93;;;50.83;;
76357;SDS011;65185;21.060;105.826;2023-03-12T04:50:15;75.38;;;49.63;;
76357;SDS011;65185;21.060;105.826;2023-03-12T04:52:42;74.68;;;48.25;;
76357;SDS011;65185;21.060;105.826;2023-03-12T04:55:09;71.78;;;45.10;;
76357;SDS011;65185;21.060;105.826;2023-03-12T04:57:36;74.78;;;47.65;;
76357;SDS011;65185;21.060;105.826;2023-03-12T05:00:03;68.75;;;45.47;;
76357;SDS011;65185;21.060;105.826;2023-03-12T05:02:36;71.13;;;46.65;;
76357;SDS011;65185;21.060;105.826;2023-03-12T05:05:02;66.40;;;43.17;;
76357;SDS011;65185;21.060;105.826;2023-03-12T05:07:30;51.97;;;37.35;;
76357;SDS011;65185;21.060;105.826;2023-03-12T05:09:56;78.60;;;48.15;;
76357;SDS011;65185;21.060;105.826;2023-03-12T05:12:23;74.95;;;47.55;;
76357;SDS011;65185;21.060;105.826;2023-03-12T05:14:50;80.47;;;48.13;;
76357;SDS011;65185;21.060;105.826;2023-03-12T05:17:17;65.53;;;41.90;;
76357;SDS011;65185;21.060;105.826;2023-03-12T05:19:44;68.68;;;44.83;;
76357;SDS011;65185;21.060;105.826;2023-03-12T05:22:10;74.25;;;46.63;;
76357;SDS011;65185;21.060;105.826;2023-03-12T05:24:37;75.68;;;50.17;;
76357;SDS011;65185;21.060;105.826;2023-03-12T05:27:04;75.18;;;48.53;;
76357;SDS011;65185;21.060;105.826;2023-03-12T05:29:33;76.68;;;49.42;;
76357;SDS011;65185;21.060;105.826;2023-03-12T05:32:03;80.63;;;52.55;;
76357;SDS011;65185;21.060;105.826;2023-03-12T05:34:31;73.30;;;49.38;;
76357;SDS011;65185;21.060;105.826;2023-03-12T05:37:02;73.25;;;48.70;;
76357;SDS011;65185;21.060;105.826;2023-03-12T05:39:33;78.05;;;48.97;;
76357;SDS011;65185;21.060;105.826;2023-03-12T05:42:00;71.45;;;46.08;;
76357;SDS011;65185;21.060;105.826;2023-03-12T05:44:27;78.13;;;50.03;;
76357;SDS011;65185;21.060;105.826;2023-03-12T05:46:54;66.72;;;45.58;;
76357;SDS011;65185;21.060;105.826;2023-03-12T05:49:21;62.95;;;42.53;;
76357;SDS011;65185;21.060;105.826;2023-03-12T05:51:48;76.63;;;49.38;;
76357;SDS011;65185;21.060;105.826;2023-03-12T05:54:16;82.53;;;52.58;;
76357;SDS011;65185;21.060;105.826;2023-03-12T05:56:43;71.15;;;47.75;;
76357;SDS011;65185;21.060;105.826;2023-03-12T05:59:09;67.70;;;47.80;;
76357;SDS011;65185;21.060;105.826;2023-03-12T06:01:36;72.80;;;46.95;;
76357;SDS011;65185;21.060;105.826;2023-03-12T06:04:04;74.22;;;49.05;;
76357;SDS011;65185;21.060;105.826;2023-03-12T06:06:31;69.78;;;47.30;;
76357;SDS011;65185;21.060;105.826;2023-03-12T06:08:59;72.20;;;49.45;;
76357;SDS011;65185;21.060;105.826;2023-03-12T06:11:26;69.78;;;48.08;;
76357;SDS011;65185;21.060;105.826;2023-03-12T06:13:53;72.03;;;49.17;;
76357;SDS011;65185;21.060;105.826;2023-03-12T06:16:22;79.70;;;50.17;;
76357;SDS011;65185;21.060;105.826;2023-03-12T06:18:54;67.22;;;44.50;;
76357;SDS011;65185;21.060;105.826;2023-03-12T06:21:23;58.45;;;40.10;;
76357;SDS011;65185;21.060;105.826;2023-03-12T06:23:51;64.53;;;43.35;;
76357;SDS011;65185;21.060;105.826;2023-03-12T06:26:19;62.13;;;42.20;;
76357;SDS011;65185;21.060;105.826;2023-03-12T06:28:47;56.05;;;37.00;;
76357;SDS011;65185;21.060;105.826;2023-03-12T06:31:15;61.03;;;40.92;;
76357;SDS011;65185;21.060;105.826;2023-03-12T06:33:42;62.70;;;42.03;;
76357;SDS011;65185;21.060;105.826;2023-03-12T06:36:09;60.20;;;40.88;;
76357;SDS011;65185;21.060;105.826;2023-03-12T06:38:36;57.83;;;38.88;;
76357;SDS011;65185;21.060;105.826;2023-03-12T06:41:08;62.17;;;42.60;;
76357;SDS011;65185;21.060;105.826;2023-03-12T06:43:37;62.42;;;41.67;;
76357;SDS011;65185;21.060;105.826;2023-03-12T06:46:06;60.35;;;40.75;;
76357;SDS011;65185;21.060;105.826;2023-03-12T06:48:34;63.30;;;40.30;;
76357;SDS011;65185;21.060;105.826;2023-03-12T06:51:02;68.30;;;45.70;;
76357;SDS011;65185;21.060;105.826;2023-03-12T06:53:30;68.85;;;44.90;;
76357;SDS011;65185;21.060;105.826;2023-03-12T06:55:58;66.47;;;42.08;;
76357;SDS011;65185;21.060;105.826;2023-03-12T06:58:27;65.20;;;41.85;;
76357;SDS011;65185;21.060;105.826;2023-03-12T07:00:54;64.75;;;44.10;;
76357;SDS011;65185;21.060;105.826;2023-03-12T07:03:22;69.80;;;45.20;;
76357;SDS011;65185;21.060;105.826;2023-03-12T07:05:49;66.57;;;42.60;;
76357;SDS011;65185;21.060;105.826;2023-03-12T07:08:17;66.65;;;43.28;;
76357;SDS011;65185;21.060;105.826;2023-03-12T07:10:44;68.07;;;43.88;;
76357;SDS011;65185;21.060;105.826;2023-03-12T07:13:11;62.08;;;42.85;;
76357;SDS011;65185;21.060;105.826;2023-03-12T07:15:38;61.08;;;40.42;;
76357;SDS011;65185;21.060;105.826;2023-03-12T07:18:06;82.10;;;50.92;;
76357;SDS011;65185;21.060;105.826;2023-03-12T07:20:36;77.43;;;48.33;;
76357;SDS011;65185;21.060;105.826;2023-03-12T07:23:04;71.95;;;47.20;;
76357;SDS011;65185;21.060;105.826;2023-03-12T07:25:35;73.28;;;47.97;;
76357;SDS011;65185;21.060;105.826;2023-03-12T07:28:05;64.18;;;44.00;;
76357;SDS011;65185;21.060;105.826;2023-03-12T07:30:33;70.68;;;45.55;;
76357;SDS011;65185;21.060;105.826;2023-03-12T07:33:01;65.53;;;42.72;;
76357;SDS011;65185;21.060;105.826;2023-03-12T07:35:29;66.95;;;44.40;;
76357;SDS011;65185;21.060;105.826;2023-03-12T07:37:57;58.58;;;40.03;;
76357;SDS011;65185;21.060;105.826;2023-03-12T07:40:25;56.30;;;39.78;;
76357;SDS011;65185;21.060;105.826;2023-03-12T07:42:52;69.05;;;43.00;;
76357;SDS011;65185;21.060;105.826;2023-03-12T07:45:19;69.60;;;44.80;;
76357;SDS011;65185;21.060;105.826;2023-03-12T07:47:46;67.40;;;43.92;;
76357;SDS011;65185;21.060;105.826;2023-03-12T07:50:13;60.83;;;40.50;;
76357;SDS011;65185;21.060;105.826;2023-03-12T07:52:41;63.67;;;43.22;;
76357;SDS011;65185;21.060;105.826;2023-03-12T07:55:08;76.57;;;48.60;;
76357;SDS011;65185;21.060;105.826;2023-03-12T07:57:35;69.18;;;45.53;;
76357;SDS011;65185;21.060;105.826;2023-03-12T08:00:03;68.35;;;45.55;;
76357;SDS011;65185;21.060;105.826;2023-03-12T08:02:32;74.95;;;50.67;;
76357;SDS011;65185;21.060;105.826;2023-03-12T08:04:59;72.72;;;46.67;;
76357;SDS011;65185;21.060;105.826;2023-03-12T08:07:32;70.47;;;47.75;;
76357;SDS011;65185;21.060;105.826;2023-03-12T08:10:00;68.43;;;47.17;;
76357;SDS011;65185;21.060;105.826;2023-03-12T08:12:28;79.95;;;51.88;;
76357;SDS011;65185;21.060;105.826;2023-03-12T08:14:55;85.20;;;55.10;;
76357;SDS011;65185;21.060;105.826;2023-03-12T08:17:21;81.85;;;52.38;;
76357;SDS011;65185;21.060;105.826;2023-03-12T08:19:51;83.38;;;52.88;;
76357;SDS011;65185;21.060;105.826;2023-03-12T08:22:24;78.65;;;49.88;;
76357;SDS011;65185;21.060;105.826;2023-03-12T08:24:51;80.63;;;53.03;;
76357;SDS011;65185;21.060;105.826;2023-03-12T08:29:47;91.30;;;56.33;;
76357;SDS011;65185;21.060;105.826;2023-03-12T08:32:13;83.32;;;53.80;;
76357;SDS011;65185;21.060;105.826;2023-03-12T08:34:42;90.10;;;57.10;;
76357;SDS011;65185;21.060;105.826;2023-03-12T08:37:09;91.35;;;60.85;;
76357;SDS011;65185;21.060;105.826;2023-03-12T08:39:35;93.22;;;58.63;;
76357;SDS011;65185;21.060;105.826;2023-03-12T08:42:02;89.38;;;57.67;;
76357;SDS011;65185;21.060;105.826;2023-03-12T08:44:29;93.63;;;59.38;;
76357;SDS011;65185;21.060;105.826;2023-03-12T08:46:56;92.57;;;59.28;;
76357;SDS011;65185;21.060;105.826;2023-03-12T08:49:22;90.50;;;57.60;;
76357;SDS011;65185;21.060;105.826;2023-03-12T08:51:50;96.45;;;60.75;;
76357;SDS011;65185;21.060;105.826;2023-03-12T08:54:16;87.75;;;58.80;;
76357;SDS011;65185;21.060;105.826;2023-03-12T08:56:43;96.88;;;60.67;;
76357;SDS011;65185;21.060;105.826;2023-03-12T08:59:11;119.15;;;61.80;;
76357;SDS011;65185;21.060;105.826;2023-03-12T09:01:38;97.25;;;58.17;;
76357;SDS011;65185;21.060;105.826;2023-03-12T09:04:05;101.95;;;60.08;;
76357;SDS011;65185;21.060;105.826;2023-03-12T09:06:32;93.00;;;59.10;;
76357;SDS011;65185;21.060;105.826;2023-03-12T09:09:00;92.35;;;59.33;;
76357;SDS011;65185;21.060;105.826;2023-03-12T09:11:31;95.97;;;59.67;;
76357;SDS011;65185;21.060;105.826;2023-03-12T09:13:58;94.20;;;59.97;;
76357;SDS011;65185;21.060;105.826;2023-03-12T09:16:26;89.30;;;57.92;;
76357;SDS011;65185;21.060;105.826;2023-03-12T09:18:53;100.57;;;63.65;;
76357;SDS011;65185;21.060;105.826;2023-03-12T09:21:20;100.10;;;62.08;;
76357;SDS011;65185;21.060;105.826;2023-03-12T09:23:47;99.63;;;61.85;;
76357;SDS011;65185;21.060;105.826;2023-03-12T09:26:14;101.97;;;64.60;;
76357;SDS011;65185;21.060;105.826;2023-03-12T09:28:40;97.47;;;63.08;;
76357;SDS011;65185;21.060;105.826;2023-03-12T09:31:09;100.55;;;64.72;;
76357;SDS011;65185;21.060;105.826;2023-03-12T09:33:36;98.88;;;63.35;;
76357;SDS011;65185;21.060;105.826;2023-03-12T09:36:03;98.32;;;61.45;;
76357;SDS011;65185;21.060;105.826;2023-03-12T09:38:30;106.78;;;67.95;;
76357;SDS011;65185;21.060;105.826;2023-03-12T09:40:59;110.20;;;66.43;;
76357;SDS011;65185;21.060;105.826;2023-03-12T09:43:38;102.30;;;63.72;;
76357;SDS011;65185;21.060;105.826;2023-03-12T09:46:11;104.70;;;68.40;;
76357;SDS011;65185;21.060;105.826;2023-03-12T09:51:45;100.55;;;63.50;;
76357;SDS011;65185;21.060;105.826;2023-03-12T09:57:11;97.40;;;64.88;;
76357;SDS011;65185;21.060;105.826;2023-03-12T09:59:44;108.07;;;69.25;;
76357;SDS011;65185;21.060;105.826;2023-03-12T10:05:09;113.65;;;72.32;;
76357;SDS011;65185;21.060;105.826;2023-03-12T10:07:45;111.13;;;71.30;;
76357;SDS011;65185;21.060;105.826;2023-03-12T10:13:06;113.80;;;71.25;;
76357;SDS011;65185;21.060;105.826;2023-03-12T10:18:36;118.65;;;76.40;;
76357;SDS011;65185;21.060;105.826;2023-03-12T10:21:14;117.47;;;75.25;;
76357;SDS011;65185;21.060;105.826;2023-03-12T10:26:38;113.57;;;75.80;;
76357;SDS011;65185;21.060;105.826;2023-03-12T10:29:19;115.40;;;75.55;;
76357;SDS011;65185;21.060;105.826;2023-03-12T10:31:54;118.80;;;76.18;;
76357;SDS011;65185;21.060;105.826;2023-03-12T10:37:04;113.43;;;73.90;;
76357;SDS011;65185;21.060;105.826;2023-03-12T10:39:53;118.15;;;75.90;;
76357;SDS011;65185;21.060;105.826;2023-03-12T10:42:22;118.90;;;74.70;;
76357;SDS011;65185;21.060;105.826;2023-03-12T10:44:55;117.40;;;75.20;;
76357;SDS011;65185;21.060;105.826;2023-03-12T10:50:13;122.25;;;78.18;;
76357;SDS011;65185;21.060;105.826;2023-03-12T10:52:43;121.55;;;76.10;;
76357;SDS011;65185;21.060;105.826;2023-03-12T10:55:22;127.25;;;80.18;;
76357;SDS011;65185;21.060;105.826;2023-03-12T10:57:52;123.35;;;76.72;;
76357;SDS011;65185;21.060;105.826;2023-03-12T11:00:23;120.38;;;75.38;;
76357;SDS011;65185;21.060;105.826;2023-03-12T11:05:29;123.75;;;79.28;;
76357;SDS011;65185;21.060;105.826;2023-03-12T11:08:12;119.13;;;75.20;;
76357;SDS011;65185;21.060;105.826;2023-03-12T11:10:47;115.95;;;73.57;;
76357;SDS011;65185;21.060;105.826;2023-03-12T11:19:04;120.25;;;76.18;;
76357;SDS011;65185;21.060;105.826;2023-03-12T11:21:34;119.53;;;75.40;;
76357;SDS011;65185;21.060;105.826;2023-03-12T11:24:06;118.47;;;74.93;;
76357;SDS011;65185;21.060;105.826;2023-03-12T11:32:19;116.35;;;73.65;;
76357;SDS011;65185;21.060;105.826;2023-03-12T11:34:56;118.15;;;73.55;;
76357;SDS011;65185;21.060;105.826;2023-03-12T11:37:38;118.93;;;74.78;;
76357;SDS011;65185;21.060;105.826;2023-03-12T11:48:48;153.55;;;91.72;;
76357;SDS011;65185;21.060;105.826;2023-03-12T11:57:05;154.88;;;92.47;;
76357;SDS011;65185;21.060;105.826;2023-03-12T12:04:53;147.57;;;90.40;;
76357;SDS011;65185;21.060;105.826;2023-03-12T12:07:54;140.32;;;87.18;;
76357;SDS011;65185;21.060;105.826;2023-03-12T12:10:51;134.80;;;87.18;;
76357;SDS011;65185;21.060;105.826;2023-03-12T12:22:33;125.45;;;82.38;;
76357;SDS011;65185;21.060;105.826;2023-03-12T12:27:55;127.88;;;80.93;;
76357;SDS011;65185;21.060;105.826;2023-03-12T12:33:34;133.88;;;84.63;;
76357;SDS011;65185;21.060;105.826;2023-03-12T12:36:26;140.38;;;86.32;;
76357;SDS011;65185;21.060;105.826;2023-03-12T12:39:02;132.68;;;85.60;;
76357;SDS011;65185;21.060;105.826;2023-03-12T12:41:47;137.45;;;87.55;;
76357;SDS011;65185;21.060;105.826;2023-03-12T12:44:19;149.00;;;91.72;;
76357;SDS011;65185;21.060;105.826;2023-03-12T12:46:51;145.13;;;91.47;;
76357;SDS011;65185;21.060;105.826;2023-03-12T12:49:25;154.90;;;98.45;;
76357;SDS011;65185;21.060;105.826;2023-03-12T12:52:00;150.32;;;95.38;;
76357;SDS011;65185;21.060;105.826;2023-03-12T12:57:17;149.57;;;92.85;;
76357;SDS011;65185;21.060;105.826;2023-03-12T13:00:02;141.13;;;90.05;;
76357;SDS011;65185;21.060;105.826;2023-03-12T13:02:37;141.38;;;88.88;;
76357;SDS011;65185;21.060;105.826;2023-03-12T13:05:39;139.65;;;87.20;;
76357;SDS011;65185;21.060;105.826;2023-03-12T13:08:30;142.25;;;91.63;;
76357;SDS011;65185;21.060;105.826;2023-03-12T13:13:44;146.10;;;90.05;;
76357;SDS011;65185;21.060;105.826;2023-03-12T13:16:30;148.68;;;93.57;;
76357;SDS011;65185;21.060;105.826;2023-03-12T13:18:58;156.35;;;94.72;;
76357;SDS011;65185;21.060;105.826;2023-03-12T13:26:52;135.23;;;81.85;;
76357;SDS011;65185;21.060;105.826;2023-03-12T13:29:35;87.32;;;52.80;;
76357;SDS011;65185;21.060;105.826;2023-03-12T13:32:05;75.10;;;41.95;;
76357;SDS011;65185;21.060;105.826;2023-03-12T13:34:55;67.22;;;35.40;;
76357;SDS011;65185;21.060;105.826;2023-03-12T13:48:45;29.75;;;13.57;;
76357;SDS011;65185;21.060;105.826;2023-03-12T13:51:20;23.52;;;11.30;;
76357;SDS011;65185;21.060;105.826;2023-03-12T13:56:19;17.00;;;7.40;;
76357;SDS011;65185;21.060;105.826;2023-03-12T13:58:56;20.30;;;7.45;;
76357;SDS011;65185;21.060;105.826;2023-03-12T14:01:36;23.98;;;7.60;;
76357;SDS011;65185;21.060;105.826;2023-03-12T14:04:24;22.27;;;7.22;;
76357;SDS011;65185;21.060;105.826;2023-03-12T14:17:30;17.95;;;7.07;;
76357;SDS011;65185;21.060;105.826;2023-03-12T14:20:00;16.67;;;6.80;;
76357;SDS011;65185;21.060;105.826;2023-03-12T14:22:54;15.52;;;7.07;;
76357;SDS011;65185;21.060;105.826;2023-03-12T14:25:30;17.05;;;7.22;;
76357;SDS011;65185;21.060;105.826;2023-03-12T14:27:59;14.18;;;6.65;;
76357;SDS011;65185;21.060;105.826;2023-03-12T14:30:35;15.93;;;6.13;;
76357;SDS011;65185;21.060;105.826;2023-03-12T14:33:09;14.43;;;6.78;;
76357;SDS011;65185;21.060;105.826;2023-03-12T14:35:41;14.23;;;6.07;;
76357;SDS011;65185;21.060;105.826;2023-03-12T14:38:15;16.50;;;5.97;;
76357;SDS011;65185;21.060;105.826;2023-03-12T14:41:01;16.40;;;6.32;;
76357;SDS011;65185;21.060;105.826;2023-03-12T14:43:33;12.40;;;5.75;;
76357;SDS011;65185;21.060;105.826;2023-03-12T14:46:03;14.00;;;6.13;;
76357;SDS011;65185;21.060;105.826;2023-03-12T14:48:38;12.13;;;5.85;;
76357;SDS011;65185;21.060;105.826;2023-03-12T14:51:05;13.65;;;6.40;;
76357;SDS011;65185;21.060;105.826;2023-03-12T14:53:33;11.55;;;5.45;;
76357;SDS011;65185;21.060;105.826;2023-03-12T14:58:32;12.88;;;6.60;;
76357;SDS011;65185;21.060;105.826;2023-03-12T15:01:02;17.65;;;6.28;;
76357;SDS011;65185;21.060;105.826;2023-03-12T15:05:59;13.77;;;6.57;;
76357;SDS011;65185;21.060;105.826;2023-03-12T15:08:25;12.45;;;6.43;;
76357;SDS011;65185;21.060;105.826;2023-03-12T15:10:56;13.68;;;7.28;;
76357;SDS011;65185;21.060;105.826;2023-03-12T15:13:24;15.57;;;7.00;;
76357;SDS011;65185;21.060;105.826;2023-03-12T15:15:52;16.08;;;7.15;;
76357;SDS011;65185;21.060;105.826;2023-03-12T15:18:22;12.77;;;7.05;;
76357;SDS011;65185;21.060;105.826;2023-03-12T15:20:51;12.57;;;6.40;;
76357;SDS011;65185;21.060;105.826;2023-03-12T15:23:20;15.45;;;7.15;;
76357;SDS011;65185;21.060;105.826;2023-03-12T15:29:00;11.73;;;6.72;;
76357;SDS011;65185;21.060;105.826;2023-03-12T15:31:45;12.43;;;6.78;;
76357;SDS011;65185;21.060;105.826;2023-03-12T15:34:25;12.23;;;7.35;;
76357;SDS011;65185;21.060;105.826;2023-03-12T15:37:00;16.73;;;7.47;;
76357;SDS011;65185;21.060;105.826;2023-03-12T15:39:32;17.25;;;8.30;;
76357;SDS011;65185;21.060;105.826;2023-03-12T15:42:06;15.73;;;7.93;;
76357;SDS011;65185;21.060;105.826;2023-03-12T15:47:15;13.25;;;7.40;;
76357;SDS011;65185;21.060;105.826;2023-03-12T15:49:52;12.18;;;7.05;;
76357;SDS011;65185;21.060;105.826;2023-03-12T15:57:54;13.80;;;7.50;;
76357;SDS011;65185;21.060;105.826;2023-03-12T16:03:14;11.68;;;6.75;;
76357;SDS011;65185;21.060;105.826;2023-03-12T16:05:42;13.07;;;7.30;;
76357;SDS011;65185;21.060;105.826;2023-03-12T16:08:23;14.20;;;7.82;;
76357;SDS011;65185;21.060;105.826;2023-03-12T16:10:53;11.68;;;7.40;;
76357;SDS011;65185;21.060;105.826;2023-03-12T16:13:21;15.13;;;7.78;;
76357;SDS011;65185;21.060;105.826;2023-03-12T16:15:52;11.75;;;7.20;;
76357;SDS011;65185;21.060;105.826;2023-03-12T16:18:20;15.23;;;7.60;;
76357;SDS011;65185;21.060;105.826;2023-03-12T16:20:49;13.52;;;7.80;;
76357;SDS011;65185;21.060;105.826;2023-03-12T16:23:17;13.30;;;7.60;;
76357;SDS011;65185;21.060;105.826;2023-03-12T16:25:45;14.23;;;7.82;;
76357;SDS011;65185;21.060;105.826;2023-03-12T16:28:15;14.73;;;8.13;;
76357;SDS011;65185;21.060;105.826;2023-03-12T16:33:11;16.10;;;7.90;;
76357;SDS011;65185;21.060;105.826;2023-03-12T16:35:43;12.93;;;7.65;;
76357;SDS011;65185;21.060;105.826;2023-03-12T16:38:09;13.73;;;7.82;;
76357;SDS011;65185;21.060;105.826;2023-03-12T16:40:37;13.95;;;7.45;;